Station info - map view · info · telemetry · weather · raw · status · beacons · messages · bulletins · browse · moving · my account
Callsign, ship name or locator: Clear       
It is possible to search using wildcards (*?) after a prefix. Example: OH*
APRS station OZ1INN-9 - show graphs
Map loading...
Mic-E message: Special
Location: 55°28.36' N 8°26.95' E - locator JO45FL33VK - show map - static map
0.4 miles North bearing 356° from Esbjerg, Esbjerg, South Denmark, Denmark [?]
2.7 miles Northeast bearing 47° from Nordby, Fanø Kommune, South Denmark, Denmark
76.1 miles West bearing 275° from Odense, Odense Kommune, South Denmark, Denmark
83.1 miles Southwest bearing 236° from Århus, Århus Kommune, Central Jutland, Denmark
Last position: 2018-12-14 07:05:14 EST (1d 2h10m ago)
2018-12-14 13:05:14 CET local time at Esbjerg, Denmark [?]
Altitude: 43 ft
Course: 10°
Speed: 17 MPH
Device: Yaesu: FTM-350 (rig)
Last path: OZ1INN-9>5U2XS6 via WIDE1-1,WIDE2-1,qAR,OZ2DIJ-2 (good)
Positions stored: 69712
Packet rate: 170 seconds between packets on average during 6301 seconds.
Stations near current position of OZ1INN-9 - show more
callsign distance last heard - EST      callsign distance last heard - EST
OZ1DHS-B0.7 miles 27°2018-12-15 09:08:20 OZ0AJ-70.8 miles 186°2018-12-15 07:12:53
OZ3LPH1.0 miles 306°2018-12-15 08:08:40 5P1LNI1.0 miles 142°2018-12-14 02:14:54
OZ1LNI1.1 miles 50°2018-12-12 18:39:14 OZ8REC-DP1.1 miles 49°2018-12-15 09:06:04
OZ0DFT1.1 miles 49°2018-11-24 17:36:29 5P1LNI B1.1 miles 49°2018-12-15 09:05:36
5P1LNI-B1.1 miles 49°2018-12-15 09:05:46 5P1LNI-DP1.1 miles 49°2018-12-15 09:06:04
OZ1LNI-71.1 miles 49°2018-11-16 10:06:10 OZ1LDO B1.4 miles 74°2018-12-15 09:12:50
OZ1LDO-B1.4 miles 74°2018-12-15 09:13:00 OZ1LDO-DP1.4 miles 74°2018-12-15 09:06:04
OZ4RED B2.1 miles 10°2018-12-15 08:59:20 OZ4RED-B2.1 miles 10°2018-12-15 08:59:30
OZ4RED C2.1 miles 10°2018-12-15 08:59:00 OZ4RED-C2.1 miles 10°2018-12-15 08:59:10
OZ6REY-DP2.6 miles 322°2018-12-15 09:06:04 434.6500-2.6 miles 322°2018-12-15 09:15:49
Stations which heard OZ1INN-9 directly on radio –
callsign pkts first heard - EST last heard longest (tx => rx) longest at - EST
OZ5DIA-2 19 2018-12-07 05:20:35 2018-12-08 16:03:34 JO44QQ > JO44TX 21.3 miles 27° 2018-12-08 15:23:10
DB0HHN 12 2018-12-07 07:10:08 2018-12-08 14:30:36 JO43XK > JO53AS 26.1 miles 13° 2018-12-08 13:53:17
DB0END 5 2018-12-07 11:54:37 2018-12-08 11:09:19 JO31UN > JO31PH 23.7 miles 221° 2018-12-08 11:09:19
DK5BD-1 13 2018-12-07 08:50:58 2018-12-08 13:13:47 JO43LA > JO42IX 10.7 miles 254° 2018-12-08 13:13:47
DC8LV 6 2018-12-07 07:02:07 2018-12-08 14:36:36 JO44XC > JO43SV 20.8 miles 229° 2018-12-07 07:02:07
OZ2DXE-2 60 2018-12-03 01:26:07 2018-12-04 09:29:41 JO45JX > JO46ML 35.6 miles 15° 2018-12-03 01:26:07
DL9OBG 3 2018-12-08 12:43:20 2018-12-08 12:52:33 JO42CU > JO42FV 9.1 miles 73° 2018-12-08 12:43:20
DB0DY 3 2018-12-07 10:49:46 2018-12-08 12:01:06 JO32UD > JO32WE 7.7 miles 76° 2018-12-08 11:57:00
DB0NY 3 2018-12-07 11:29:08 2018-12-08 10:06:03 JO31UQ > JO31TB 41.7 miles 184° 2018-12-07 11:29:08
OZ8DIZ-2 3 2018-12-03 04:10:09 2018-12-03 08:09:23 JO46SL > JO46TR 18.5 miles 8° 2018-12-03 08:09:23
DB0ELB 5 2018-12-07 08:12:28 2018-12-08 13:56:07 JO43SH > JO43UN 20.6 miles 22° 2018-12-07 08:16:28
DG1RUE 9 2018-12-07 10:43:41 2018-12-08 12:03:00 JO32WF > JO32VA 13.4 miles 195° 2018-12-07 10:43:41
OZ2REC-2 114 2018-12-03 02:14:59 2018-12-04 08:46:52 JO46NG > JO46VR 40.0 miles 41° 2018-12-04 02:16:29
DB0HAT 21 2018-12-07 11:21:07 2018-12-08 11:20:52 JO31RL > JO31VQ 19.1 miles 49° 2018-12-08 10:06:35
OZ2DIJ-2 141 2018-12-01 07:45:00 2018-12-14 07:05:14 JO45HQ > JO45FM 13.4 miles 206° 2018-12-03 10:10:12
DB0DAM 8 2018-12-07 09:58:34 2018-12-08 12:40:02 JO32XH > JO42CN 19.5 miles 33° 2018-12-07 10:32:07
DB0FS-10 14 2018-12-07 07:18:08 2018-12-08 14:13:06 JO43XU > JO43XO 18.8 miles 180° 2018-12-07 07:18:08
DB0ZV 16 2018-12-07 11:48:37 2018-12-08 10:30:38 JO31UN > JO31RJ 15.3 miles 210° 2018-12-08 10:30:07
DB0DOS-10 16 2018-12-07 10:05:05 2018-12-08 12:31:20 JO42BP > JO42AE 31.4 miles 188° 2018-12-07 10:05:05
DB0FBB 13 2018-12-07 11:41:18 2018-12-08 11:22:51 JO31UO > JO31RM 10.6 miles 231° 2018-12-08 11:22:51
DL6PI 17 2018-12-07 11:52:35 2018-12-08 10:21:24 JO31TM > JO31QK 12.6 miles 241° 2018-12-08 10:21:24
DB0DAM-10 4 2018-12-07 09:55:04 2018-12-08 12:33:21 JO42CT > JO42CN 16.4 miles 179° 2018-12-07 09:55:04
DO1LKD 7 2018-12-07 06:36:49 2018-12-08 14:59:33 JO44WE > JO44WJ 14.4 miles 353° 2018-12-07 06:54:53
DB0RNG 14 2018-12-07 08:03:22 2018-12-08 13:38:50 JO43WJ > JO43UA 26.4 miles 198° 2018-12-07 08:03:22
DB0NLH 14 2018-12-07 10:51:23 2018-12-08 12:12:33 JO31TM > JO42DC 51.4 miles 35° 2018-12-08 10:21:24
DD3TF-5 14 2018-12-07 07:31:40 2018-12-08 14:18:58 JO43XK > JO53AP 15.0 miles 24° 2018-12-08 13:55:16
DF4DR-10 31 2018-12-07 11:48:35 2018-12-08 11:10:19 JO31UN > JO31SM 7.6 miles 242° 2018-12-08 11:09:48
DB0OL-10 3 2018-12-07 09:47:06 2018-12-08 13:15:47 JO43MB > JO43CD 32.4 miles 282° 2018-12-08 13:15:47
DB0NX-10 2 2018-12-07 11:12:38 2018-12-07 11:44:19 JO31SV > JO31TH 39.3 miles 177° 2018-12-07 11:12:38
DL2YCP-10 3 2018-12-08 10:25:20 2018-12-08 11:34:52 JO31TM > JO31SR 15.5 miles 335° 2018-12-08 10:25:20
OZ0LAV 58 2018-12-03 00:30:06 2018-12-14 05:54:08 JO45HS > JO45OK 32.7 miles 138° 2018-12-03 01:06:05
DG4DAA-13 14 2018-12-07 11:25:05 2018-12-08 11:32:50 JO31TS > JO31XO 17.7 miles 131° 2018-12-08 11:32:50
DB0BI-10 1 2018-12-07 10:47:43 2018-12-07 10:47:43 JO32VE > JO42FA 31.5 miles 111° 2018-12-07 10:47:43
DO6DN-4 29 2018-12-07 12:13:19 2018-12-08 10:10:54 JO31RM > JO31QK 5.0 miles 225° 2018-12-08 10:10:54
DF2HS-10 17 2018-12-07 08:36:10 2018-12-08 13:17:47 JO43NB > JO42IH 55.8 miles 198° 2018-12-07 08:36:10
DF4DR 12 2018-12-07 12:07:29 2018-12-08 10:24:50 JO31TM > JO31RM 7.0 miles 268° 2018-12-08 10:24:50
DB0BNL 1 2018-12-07 08:42:12 2018-12-07 08:42:12 JO43LA > JO43IE 15.1 miles 308° 2018-12-07 08:42:12

Only position packets which were originated by the station are shown here. The range statistics show some extra long hops, because some digipeaters do not correctly add themselves to the digipeater path. Please check the raw packets.
About this site
This page shows real-time information collected from the Automatic Position Reporting System Internet network (APRS-IS). APRS is used by amateur (ham) radio operators to transmit real-time position information, weather data, telemetry and messages over the radio. A vehicle equipped with a GPS receiver, a VHF transmitter or HF transceiver and a small computer device called a tracker transmits it's location, speed and course in a small data packet, which is then received by a nearby iGate receiving site which forwards the packet on the Internet. Systems connected to the Internet can send information on the APRS-IS without a radio transmitter, or collect and display information transmitted anywhere in the world.
FAQ · Blog · Discussion group · Linking to aprs.fi · AIS sites · Service status · Database statistics · Advertising on aprs.fi · Technical details · API · Change log · Planned changes · Credits and thanks · Terms Of Service · iPhone/iPad APRS